Time;durP1;ratioP1;P1;durP2;ratioP2;P2;SDS_P1;SDS_P2;PMS_P1;PMS_P2;Temp;Humidity;BMP_temperature;BMP_pressure;BME280_temperature;BME280_humidity;BME280_pressure;Samples;Min_cycle;Max_cycle;Signal;HPM_P1;HPM_P2
2023/03/15 00:00:53;;;;;;;48.80;21.80;;;;;;;9.76;49.92;98954.27;1472673;87;21368;-84
2023/03/15 00:03:19;;;;;;;33.53;13.35;;;;;;;9.75;49.84;98956.56;1474902;88;21627;-84
2023/03/15 00:05:48;;;;;;;21.23;9.63;;;;;;;9.75;49.95;98965.81;1456987;88;21540;-82
2023/03/15 00:08:15;;;;;;;24.77;10.83;;;;;;;9.73;50.04;98959.40;1458638;88;22566;-82
2023/03/15 00:10:44;;;;;;;15.27;9.57;;;;;;;9.74;50.04;98961.03;1423489;91;21667;-81
2023/03/15 00:13:13;;;;;;;13.50;7.60;;;;;;;9.73;50.24;98954.11;1459227;89;21493;-82
2023/03/15 00:15:49;;;;;;;17.07;8.27;;;;;;;9.72;50.35;98949.81;1464256;88;22358;-82
2023/03/15 00:18:18;;;;;;;19.17;10.20;;;;;;;9.70;50.37;98948.69;1471288;88;22386;-83
2023/03/15 00:20:45;;;;;;;12.50;7.83;;;;;;;9.70;50.41;98950.51;1482292;87;21529;-82
2023/03/15 00:23:13;;;;;;;15.50;7.37;;;;;;;9.70;50.34;98954.47;1491051;87;21419;-82
2023/03/15 00:25:41;;;;;;;15.77;8.53;;;;;;;9.68;50.32;98959.92;1476596;87;22305;-81
2023/03/15 00:28:07;;;;;;;19.17;7.33;;;;;;;9.68;50.44;98957.27;1488281;87;21515;-82
2023/03/15 00:30:33;;;;;;;13.60;6.60;;;;;;;9.68;50.45;98965.70;1479602;88;21507;-81
2023/03/15 00:32:59;;;;;;;13.27;6.93;;;;;;;9.68;50.63;98967.03;1484117;87;22357;-81
2023/03/15 00:35:26;;;;;;;13.30;7.30;;;;;;;9.66;50.69;98960.58;1469775;88;21412;-83
2023/03/15 00:37:55;;;;;;;15.23;6.83;;;;;;;9.64;51.06;98962.61;1478735;88;21588;-84
2023/03/15 00:40:23;;;;;;;8.13;5.40;;;;;;;9.63;50.91;98969.38;1479246;88;21618;-83
2023/03/15 00:42:51;;;;;;;8.27;5.60;;;;;;;9.60;50.85;98971.05;1468029;88;21478;-84
2023/03/15 00:45:21;;;;;;;9.33;5.73;;;;;;;9.58;50.79;98965.11;1452026;88;22411;-82
2023/03/15 00:47:52;;;;;;;8.43;4.75;;;;;;;9.57;50.77;98970.08;1461267;88;22398;-84
2023/03/15 00:50:20;;;;;;;10.50;5.40;;;;;;;9.54;50.91;98969.11;1493812;87;22497;-84
2023/03/15 00:52:46;;;;;;;13.27;6.47;;;;;;;9.55;50.89;98974.71;1485220;87;21426;-83
2023/03/15 00:55:17;;;;;;;14.77;5.70;;;;;;;9.53;51.01;98972.77;1484158;87;21514;-83
2023/03/15 00:57:45;;;;;;;9.53;6.40;;;;;;;9.51;50.99;98974.75;1466018;88;21606;-82
2023/03/15 01:00:19;;;;;;;13.00;6.07;;;;;;;9.48;50.97;98974.09;1486189;87;21463;-83
2023/03/15 01:02:46;;;;;;;15.13;6.00;;;;;;;9.41;53.42;98986.38;1458889;88;21492;-83
2023/03/15 01:05:13;;;;;;;7.90;4.07;;;;;;;9.37;52.49;98994.81;1481713;87;21472;-82
2023/03/15 01:07:39;;;;;;;9.13;5.27;;;;;;;9.35;53.48;98998.96;1487757;88;21569;-84
2023/03/15 01:10:07;;;;;;;8.30;4.93;;;;;;;9.35;52.76;99008.67;1474693;87;22492;-84
2023/03/15 01:12:34;;;;;;;12.23;6.07;;;;;;;9.36;52.67;99004.55;1482907;87;21457;-84
2023/03/15 01:15:03;;;;;;;11.30;4.87;;;;;;;9.37;53.11;99008.83;1456392;89;21472;-84
2023/03/15 01:17:29;;;;;;;7.53;4.57;;;;;;;9.41;53.24;99015.42;1468689;88;21529;-82
2023/03/15 01:19:57;;;;;;;9.13;4.53;;;;;;;9.45;52.52;99013.25;1459818;88;21983;-82
2023/03/15 01:22:23;;;;;;;9.20;4.77;;;;;;;9.46;52.49;99009.09;1463024;88;21472;-83
2023/03/15 01:24:49;;;;;;;9.70;5.57;;;;;;;9.46;52.42;99008.28;1463201;88;21405;-83
2023/03/15 01:27:15;;;;;;;13.83;5.63;;;;;;;9.46;52.62;99010.41;1453875;88;21354;-83
2023/03/15 01:29:41;;;;;;;7.70;5.73;;;;;;;9.46;52.71;99009.59;1451963;88;21316;-82
2023/03/15 01:32:08;;;;;;;11.73;6.00;;;;;;;9.46;52.68;99010.92;1472909;88;22380;-82
2023/03/15 01:34:35;;;;;;;8.80;5.40;;;;;;;9.46;52.78;99005.64;1463793;88;21434;-83
2023/03/15 01:37:03;;;;;;;10.93;6.10;;;;;;;9.45;52.94;98998.72;1455817;88;21493;-83
2023/03/15 01:39:30;;;;;;;14.17;6.07;;;;;;;9.44;53.24;98996.59;1481232;87;23098;-83
2023/03/15 01:41:56;;;;;;;13.40;5.90;;;;;;;9.43;53.44;98991.47;1478729;87;21464;-81
2023/03/15 01:44:23;;;;;;;18.53;8.10;;;;;;;9.42;53.47;98988.52;1465589;87;21332;-83
2023/03/15 01:46:49;;;;;;;11.10;6.00;;;;;;;9.42;53.58;98995.11;1452795;90;21772;-82
2023/03/15 01:49:31;;;;;;;11.17;6.30;;;;;;;9.39;54.07;98992.32;1454078;90;21428;-82
2023/03/15 01:52:05;;;;;;;15.23;6.10;;;;;;;9.39;53.84;98996.28;1460408;90;22390;-82
2023/03/15 01:54:52;;;;;;;14.33;7.43;;;;;;;9.37;53.97;98992.98;1459259;88;22418;-81
2023/03/15 01:57:29;;;;;;;12.07;6.77;;;;;;;9.38;54.06;98987.20;1469173;87;22299;-81
2023/03/15 02:00:00;;;;;;;9.63;5.57;;;;;;;9.34;54.17;98986.73;1473606;88;21345;-82
2023/03/15 02:02:28;;;;;;;14.40;5.37;;;;;;;9.34;54.42;98984.60;1481979;87;21692;-82
2023/03/15 02:05:03;;;;;;;11.37;5.30;;;;;;;9.33;54.53;98993.02;1473192;87;22183;-82
2023/03/15 02:07:33;;;;;;;11.30;5.70;;;;;;;9.32;54.54;98990.07;1473150;88;21597;-80
2023/03/15 02:10:06;;;;;;;23.57;12.17;;;;;;;9.31;54.83;98993.69;1452079;90;21485;-80
2023/03/15 02:12:38;;;;;;;30.40;15.53;;;;;;;9.30;55.26;99001.80;1427639;91;21601;-81
2023/03/15 02:15:06;;;;;;;41.57;20.27;;;;;;;9.29;55.71;99005.41;1462544;88;21485;-82
2023/03/15 02:17:43;;;;;;;47.93;22.23;;;;;;;9.27;55.80;99006.92;1433561;91;21666;-81
2023/03/15 02:20:39;;;;;;;26.93;14.93;;;;;;;9.24;56.07;99004.63;1460999;89;21479;-81
2023/03/15 02:23:12;;;;;;;24.80;13.23;;;;;;;9.24;56.08;99007.27;1435310;91;21621;-82
2023/03/15 02:26:18;;;;;;;20.17;11.07;;;;;;;9.23;56.17;99008.25;1469377;88;22357;-81
2023/03/15 02:28:45;;;;;;;14.70;8.50;;;;;;;9.22;56.28;99009.26;1475586;87;21663;-83
2023/03/15 02:31:12;;;;;;;18.37;8.77;;;;;;;9.22;56.29;99005.30;1472986;88;21492;-82
2023/03/15 02:33:47;;;;;;;19.33;9.73;;;;;;;9.22;56.65;99002.66;1479093;88;21507;-83
2023/03/15 02:36:26;;;;;;;16.33;10.60;;;;;;;9.21;56.68;98991.28;1481192;87;21441;-83
2023/03/15 02:38:55;;;;;;;13.27;8.47;;;;;;;9.22;56.89;98996.88;1470612;88;21498;-83
2023/03/15 02:41:35;;;;;;;13.27;8.17;;;;;;;9.22;56.88;99000.02;1458801;88;21375;-82
2023/03/15 02:44:13;;;;;;;11.80;8.95;;;;;;;9.22;57.14;98995.55;1449561;88;22374;-82
2023/03/15 02:46:41;;;;;;;18.07;11.10;;;;;;;9.21;57.22;98990.46;1473892;88;21397;-81
2023/03/15 02:49:08;;;;;;;83.33;57.87;;;;;;;9.22;57.36;98982.86;1463873;88;21508;-82
2023/03/15 02:51:34;;;;;;;106.33;72.60;;;;;;;9.20;57.66;98984.84;1460151;88;21471;-81
2023/03/15 02:54:01;;;;;;;27.87;16.70;;;;;;;9.19;57.80;98985.84;1456191;88;23326;-82
2023/03/15 02:56:27;;;;;;;17.13;8.67;;;;;;;9.18;58.08;98985.03;1464118;88;21404;-81
2023/03/15 02:58:53;;;;;;;14.97;7.93;;;;;;;9.16;58.43;98989.66;1484957;88;21352;-83
2023/03/15 03:01:19;;;;;;;18.80;9.83;;;;;;;9.15;58.56;98981.89;1467962;87;22204;-81
2023/03/15 03:03:46;;;;;;;12.80;7.97;;;;;;;9.16;58.58;98988.84;1457668;88;21574;-81
2023/03/15 03:06:15;;;;;;;13.87;7.97;;;;;;;9.16;58.84;98987.02;1454938;88;21390;-82
2023/03/15 03:08:45;;;;;;;16.50;9.30;;;;;;;9.15;58.91;98992.45;1471813;88;21588;-82
2023/03/15 03:11:09;;;;;;;16.17;8.77;;;;;;;9.16;59.01;98996.75;1482883;87;21515;-82
2023/03/15 03:13:35;;;;;;;26.43;12.17;;;;;;;9.14;59.31;98991.64;1485647;88;21552;-83
2023/03/15 03:16:02;;;;;;;25.37;12.80;;;;;;;9.15;59.90;98997.73;1479528;87;21603;-83
2023/03/15 03:18:34;;;;;;;25.53;15.27;;;;;;;9.13;60.54;99001.06;1482380;88;21588;-83
2023/03/15 03:20:58;;;;;;;21.17;12.00;;;;;;;9.10;60.94;98997.45;1490233;88;21524;-83
2023/03/15 03:23:25;;;;;;;20.33;12.27;;;;;;;9.08;61.48;98990.19;1470345;88;21573;-83
2023/03/15 03:25:53;;;;;;;24.47;14.03;;;;;;;9.06;61.30;98991.67;1482541;88;21367;-82
2023/03/15 03:28:24;;;;;;;24.30;13.97;;;;;;;9.04;61.60;98989.22;1482394;88;22277;-81
2023/03/15 03:30:52;;;;;;;19.50;12.00;;;;;;;9.02;62.27;98989.88;1488461;87;22298;-80
2023/03/15 03:33:18;;;;;;;17.80;10.10;;;;;;;9.00;63.64;98987.91;1477641;88;21389;-81
2023/03/15 03:35:44;;;;;;;15.03;8.80;;;;;;;8.99;64.29;98990.23;1474982;88;22806;-81
2023/03/15 03:38:11;;;;;;;15.47;8.90;;;;;;;8.99;64.60;98994.19;1466629;89;21949;-81
2023/03/15 03:40:39;;;;;;;19.20;9.93;;;;;;;9.02;64.41;98995.16;1465970;88;22299;-83
2023/03/15 03:43:06;;;;;;;18.43;10.47;;;;;;;9.07;64.55;99002.58;1466804;88;21640;-82
2023/03/15 03:45:33;;;;;;;16.93;10.07;;;;;;;9.09;64.57;99001.06;1461923;88;22225;-80
2023/03/15 03:47:59;;;;;;;16.20;9.67;;;;;;;9.09;65.08;99001.06;1486208;88;21493;-81
2023/03/15 03:50:26;;;;;;;13.40;8.90;;;;;;;9.07;65.96;99003.08;1488184;87;22350;-79
2023/03/15 03:52:52;;;;;;;14.03;9.07;;;;;;;8.97;68.29;99009.36;1464892;88;21630;-82
2023/03/15 03:55:18;;;;;;;20.40;9.30;;;;;;;8.90;69.47;99015.52;1457469;89;21448;-82
2023/03/15 03:57:45;;;;;;;16.10;10.13;;;;;;;8.84;69.76;99013.56;1463512;89;22365;-81
2023/03/15 04:00:14;;;;;;;13.90;7.97;;;;;;;8.79;69.85;99018.02;1460092;88;21500;-82
2023/03/15 04:02:43;;;;;;;17.03;10.13;;;;;;;8.76;71.74;99025.77;1460393;88;21485;-82
2023/03/15 04:05:10;;;;;;;15.63;9.77;;;;;;;8.72;72.23;99024.98;1459417;88;22381;-80
2023/03/15 04:07:37;;;;;;;23.23;11.50;;;;;;;8.66;74.27;99013.77;1458162;88;21456;-81
2023/03/15 04:10:06;;;;;;;25.70;11.40;;;;;;;8.65;73.51;99016.09;1470368;88;21441;-81
2023/03/15 04:12:33;;;;;;;26.13;12.70;;;;;;;8.61;73.97;99014.80;1456607;89;21499;-83
2023/03/15 04:14:59;;;;;;;26.03;14.33;;;;;;;8.56;78.29;99026.66;1454888;89;21626;-81
2023/03/15 04:17:25;;;;;;;23.60;13.43;;;;;;;8.45;79.42;99024.38;1448162;89;22506;-82
2023/03/15 04:19:51;;;;;;;21.90;11.87;;;;;;;8.36;79.17;99024.03;1456933;89;21501;-82
2023/03/15 04:22:18;;;;;;;19.53;11.73;;;;;;;8.25;81.82;99022.56;1458558;89;21515;-81
2023/03/15 04:24:44;;;;;;;19.23;11.37;;;;;;;8.16;81.62;99017.48;1466146;87;22292;-81
2023/03/15 04:27:13;;;;;;;14.53;10.53;;;;;;;8.08;84.46;99011.20;1445979;90;21417;-82
2023/03/15 04:29:38;;;;;;;17.93;10.60;;;;;;;8.04;83.87;99012.55;1451770;89;21464;-80
2023/03/15 04:32:05;;;;;;;14.23;10.20;;;;;;;8.05;84.42;99008.09;1445931;90;21500;-82
2023/03/15 04:34:31;;;;;;;16.50;12.00;;;;;;;8.05;84.00;99006.27;1460539;90;21486;-82
2023/03/15 04:36:57;;;;;;;24.03;11.77;;;;;;;8.08;85.10;99009.08;1452808;90;22453;-81
2023/03/15 04:39:23;;;;;;;18.87;11.67;;;;;;;8.08;83.87;99008.57;1460817;90;21574;-81
2023/03/15 04:41:50;;;;;;;29.93;15.53;;;;;;;8.07;86.22;99016.16;1474580;88;21463;-81
2023/03/15 04:44:16;;;;;;;28.87;20.83;;;;;;;8.04;87.97;99019.63;1470587;87;21592;-82
2023/03/15 04:46:45;;;;;;;29.90;18.63;;;;;;;8.02;86.12;99015.83;1461281;87;22343;-80
2023/03/15 04:49:11;;;;;;;20.07;12.00;;;;;;;8.02;84.51;99018.96;1449781;90;21426;-79
2023/03/15 04:51:38;;;;;;;18.03;10.83;;;;;;;8.05;83.53;99026.03;1449453;88;21338;-79
2023/03/15 04:54:04;;;;;;;15.97;10.23;;;;;;;8.06;84.41;99027.70;1449111;89;21390;-79
2023/03/15 04:56:30;;;;;;;16.33;9.30;;;;;;;8.03;86.69;99029.35;1455439;89;21375;-79
2023/03/15 04:58:57;;;;;;;15.23;10.13;;;;;;;8.08;84.67;99029.66;1459365;88;21530;-79
2023/03/15 05:01:30;;;;;;;19.50;10.83;;;;;;;8.11;85.50;99029.83;1472137;88;21471;-81
2023/03/15 05:03:57;;;;;;;18.13;9.60;;;;;;;8.11;85.80;99034.63;1451601;87;21457;-81
2023/03/15 05:06:24;;;;;;;16.27;9.60;;;;;;;8.10;85.00;99032.95;1452810;89;22536;-79
2023/03/15 05:08:50;;;;;;;23.10;14.00;;;;;;;8.10;84.89;99038.23;1455259;90;21578;-79
2023/03/15 05:11:16;;;;;;;25.00;15.33;;;;;;;8.09;86.44;99041.86;1452125;90;21559;-79
2023/03/15 05:13:42;;;;;;;21.80;13.73;;;;;;;8.11;86.20;99045.16;1455413;89;21612;-80
2023/03/15 05:16:08;;;;;;;26.47;13.10;;;;;;;8.11;88.32;99046.48;1457982;88;22016;-80
2023/03/15 05:18:35;;;;;;;22.57;13.13;;;;;;;8.11;90.35;99048.27;1471921;88;21640;-80
2023/03/15 05:21:01;;;;;;;23.47;14.07;;;;;;;8.10;90.50;99043.50;1481478;88;21685;-79
2023/03/15 05:23:28;;;;;;;22.70;14.93;;;;;;;8.10;90.17;99050.59;1469207;88;22550;-80
2023/03/15 05:25:55;;;;;;;23.33;13.20;;;;;;;8.07;91.11;99050.41;1474736;87;21552;-80
2023/03/15 05:28:23;;;;;;;21.13;13.77;;;;;;;8.04;92.26;99050.75;1473663;87;22247;-79
2023/03/15 05:30:53;;;;;;;23.40;13.40;;;;;;;8.03;90.49;99057.02;1468262;87;21544;-80
2023/03/15 05:33:20;;;;;;;23.75;13.50;;;;;;;8.04;90.84;99059.97;1473825;88;21566;-80
2023/03/15 05:35:47;;;;;;;21.40;12.37;;;;;;;8.08;92.22;99067.05;1482983;88;21449;-77
2023/03/15 05:38:14;;;;;;;20.30;12.87;;;;;;;8.04;93.98;99071.83;1470479;88;21699;-76
2023/03/15 05:40:45;;;;;;;36.97;18.13;;;;;;;8.00;95.33;99074.48;1478712;88;21456;-79
2023/03/15 05:43:12;;;;;;;;;;;;;;;7.97;97.42;99089.30;1476554;88;21492;-79
2023/03/15 05:45:39;;;;;;;19.07;11.63;;;;;;;7.90;99.19;99100.14;1473968;87;20877;-79
2023/03/15 05:48:06;;;;;;;18.63;12.23;;;;;;;7.80;99.66;99120.55;1467289;88;21435;-79
2023/03/15 05:50:32;;;;;;;13.97;8.93;;;;;;;7.64;100.00;99127.91;1447154;90;21441;-78
2023/03/15 05:52:58;;;;;;;15.93;8.63;;;;;;;7.48;100.00;99118.63;1454939;89;21574;-79
2023/03/15 05:55:25;;;;;;;12.10;7.97;;;;;;;7.38;100.00;99121.41;1460983;90;21563;-80
2023/03/15 05:57:51;;;;;;;16.47;9.43;;;;;;;7.22;100.00;99126.95;1449233;90;21485;-80
2023/03/15 06:00:20;;;;;;;12.63;8.50;;;;;;;7.24;100.00;99121.51;1449355;90;21432;-79
2023/03/15 06:02:46;;;;;;;16.00;8.97;;;;;;;7.21;100.00;99121.33;1447922;89;21471;-80
2023/03/15 06:05:13;;;;;;;15.43;9.83;;;;;;;7.20;100.00;99128.91;1452908;88;22240;-80
2023/03/15 06:07:39;;;;;;;18.10;10.97;;;;;;;7.15;100.00;99124.59;1470669;88;21538;-79
2023/03/15 06:10:06;;;;;;;13.87;9.67;;;;;;;7.05;100.00;99131.80;1472684;87;21389;-78
2023/03/15 06:12:32;;;;;;;14.67;8.80;;;;;;;7.08;100.00;99122.27;1465714;87;21524;-80
2023/03/15 06:14:58;;;;;;;14.80;9.37;;;;;;;7.01;100.00;99134.39;1458583;88;21406;-80
2023/03/15 06:17:25;;;;;;;13.83;8.93;;;;;;;7.00;100.00;99128.30;1474772;88;21770;-79
2023/03/15 06:19:51;;;;;;;17.37;9.97;;;;;;;6.94;100.00;99125.48;1459896;88;21688;-79
2023/03/15 06:22:20;;;;;;;19.57;9.17;;;;;;;6.97;100.00;99131.25;1481817;88;22317;-78
2023/03/15 06:24:46;;;;;;;14.83;8.67;;;;;;;6.98;100.00;99129.44;1478273;88;21509;-81
2023/03/15 06:27:13;;;;;;;13.47;8.03;;;;;;;6.92;100.00;99132.20;1482615;88;22568;-81
2023/03/15 06:29:39;;;;;;;14.10;7.30;;;;;;;7.03;100.00;99132.93;1484567;88;21406;-80
2023/03/15 06:32:06;;;;;;;10.50;6.13;;;;;;;7.05;100.00;99141.47;1475683;88;21679;-80
2023/03/15 06:34:32;;;;;;;8.13;5.23;;;;;;;7.09;100.00;99141.02;1482098;88;21473;-81
2023/03/15 06:36:58;;;;;;;9.50;5.93;;;;;;;7.08;100.00;99143.32;1458762;88;21591;-80
2023/03/15 06:39:25;;;;;;;7.97;5.43;;;;;;;7.18;100.00;99144.02;1482651;88;22361;-80
2023/03/15 06:41:52;;;;;;;7.97;4.10;;;;;;;7.13;100.00;99143.66;1475384;88;21559;-80
2023/03/15 06:44:19;;;;;;;6.90;4.23;;;;;;;7.18;100.00;99147.96;1480147;88;21636;-80
2023/03/15 06:46:45;;;;;;;6.13;4.03;;;;;;;7.19;100.00;99157.52;1481630;88;21391;-80
2023/03/15 06:49:11;;;;;;;5.07;2.83;;;;;;;7.16;100.00;99153.89;1484230;88;22523;-81
2023/03/15 06:51:38;;;;;;;5.07;2.83;;;;;;;7.11;100.00;99156.16;1475472;88;22331;-81
2023/03/15 06:54:07;;;;;;;3.87;2.80;;;;;;;7.11;100.00;99165.87;1483407;88;21525;-81
2023/03/15 06:56:36;;;;;;;6.13;3.57;;;;;;;6.78;100.00;99171.72;1481372;88;22721;-81
2023/03/15 06:59:03;;;;;;;4.10;2.97;;;;;;;6.68;100.00;99188.10;1484411;88;21503;-80
2023/03/15 07:01:30;;;;;;;3.17;2.40;;;;;;;6.53;100.00;99179.94;1483387;88;22390;-80
2023/03/15 07:03:56;;;;;;;3.83;3.40;;;;;;;6.41;100.00;99193.45;1476780;88;21443;-81
2023/03/15 07:06:23;;;;;;;4.13;3.20;;;;;;;6.24;100.00;99193.33;1472148;88;21489;-83
2023/03/15 07:08:49;;;;;;;6.60;4.17;;;;;;;6.17;99.85;99204.56;1472845;88;21543;-80
2023/03/15 07:11:15;;;;;;;2.67;2.33;;;;;;;5.97;99.67;99204.69;1473821;88;21532;-81
2023/03/15 07:13:44;;;;;;;5.20;2.90;;;;;;;5.78;98.71;99209.55;1482703;88;21632;-80
2023/03/15 07:16:10;;;;;;;3.07;2.50;;;;;;;5.76;97.72;99218.05;1492108;88;21488;-80
2023/03/15 07:18:37;;;;;;;2.37;1.93;;;;;;;5.64;97.28;99210.05;1481724;88;21643;-80
2023/03/15 07:21:06;;;;;;;2.77;1.83;;;;;;;5.62;97.80;99221.16;1478478;88;22604;-78
2023/03/15 07:23:33;;;;;;;4.63;1.87;;;;;;;5.62;99.02;99219.36;1475141;88;21458;-83
2023/03/15 07:25:59;;;;;;;2.17;1.97;;;;;;;5.41;98.07;99226.64;1479718;88;22456;-83
2023/03/15 07:28:26;;;;;;;2.37;1.97;;;;;;;5.39;97.73;99226.77;1478828;88;21577;-82
2023/03/15 07:31:02;;;;;;;1.90;1.60;;;;;;;5.31;97.62;99241.09;1478403;88;22089;-85
2023/03/15 07:33:32;;;;;;;2.63;1.63;;;;;;;5.23;96.67;99237.03;1466957;88;23098;-83
2023/03/15 07:35:59;;;;;;;4.00;1.63;;;;;;;5.19;96.98;99254.04;1476876;88;22245;-83
2023/03/15 07:38:31;;;;;;;2.13;1.50;;;;;;;5.12;95.63;99251.63;1473635;88;23133;-80
2023/03/15 07:40:56;;;;;;;1.57;1.13;;;;;;;5.06;96.20;99265.31;1449094;88;23198;-80
2023/03/15 07:43:23;;;;;;;1.63;1.30;;;;;;;4.97;95.53;99265.66;1480111;88;22351;-80
2023/03/15 07:45:50;;;;;;;1.63;1.40;;;;;;;4.75;94.98;99268.94;1469285;88;22139;-81
2023/03/15 07:48:18;;;;;;;1.47;1.30;;;;;;;4.70;95.60;99269.01;1456244;88;22284;-78
2023/03/15 07:50:45;;;;;;;1.60;1.10;;;;;;;4.65;96.11;99264.66;1477572;88;22125;-79
2023/03/15 07:53:11;;;;;;;2.13;1.13;;;;;;;4.61;94.87;99268.53;1480691;88;22265;-79
2023/03/15 07:55:38;;;;;;;2.20;1.50;;;;;;;4.61;94.87;99268.53;1485544;88;22327;-78
2023/03/15 07:58:04;;;;;;;1.67;1.10;;;;;;;4.54;93.42;99269.75;1480045;88;22311;-80
2023/03/15 08:00:31;;;;;;;2.70;1.20;;;;;;;4.57;93.43;99269.75;1472717;88;22385;-80
2023/03/15 08:02:58;;;;;;;1.07;0.80;;;;;;;4.52;92.40;99277.55;1474415;88;22375;-79
2023/03/15 08:05:24;;;;;;;1.47;0.67;;;;;;;4.50;92.05;99288.64;1487783;88;22162;-80
2023/03/15 08:07:51;;;;;;;1.50;0.90;;;;;;;4.49;90.92;99281.77;1478594;88;22274;-78
2023/03/15 08:10:17;;;;;;;1.83;1.10;;;;;;;4.51;92.06;99281.12;1475851;88;22132;-81
2023/03/15 08:12:44;;;;;;;1.70;0.90;;;;;;;4.44;91.68;99293.13;1480210;88;22115;-82
2023/03/15 08:15:14;;;;;;;2.87;1.87;;;;;;;4.40;90.67;99298.77;1476248;88;22307;-81
2023/03/15 08:17:43;;;;;;;3.17;1.53;;;;;;;4.40;90.67;99298.77;1478524;88;22207;-82
2023/03/15 08:20:13;;;;;;;1.53;1.17;;;;;;;4.38;89.88;99315.12;1479715;88;22296;-80
2023/03/15 08:22:43;;;;;;;1.30;1.13;;;;;;;4.35;89.23;99310.97;1481098;88;23085;-80
2023/03/15 08:25:10;;;;;;;3.50;1.53;;;;;;;4.35;89.23;99310.97;1474665;88;22176;-78
2023/03/15 08:27:37;;;;;;;3.77;2.30;;;;;;;4.38;88.89;99327.73;1472713;88;22166;-81
2023/03/15 08:30:07;;;;;;;1.57;1.17;;;;;;;4.36;89.00;99328.83;1481758;88;22072;-79
2023/03/15 08:32:34;;;;;;;3.87;1.90;;;;;;;4.34;89.89;99332.88;1478181;88;22114;-80
2023/03/15 08:35:00;;;;;;;1.70;1.20;;;;;;;4.26;90.54;99337.98;1399730;88;22822;-81
2023/03/15 08:37:26;;;;;;;2.17;0.90;;;;;;;4.26;90.54;99337.98;1402052;88;23183;-80
2023/03/15 08:39:59;;;;;;;1.57;1.13;;;;;;;4.16;92.25;99351.52;1402175;88;22038;-80
2023/03/15 08:42:21;;;;;;;1.53;1.20;;;;;;;4.16;92.25;99351.52;1560014;88;22990;-78
2023/03/15 08:44:47;;;;;;;2.20;1.37;;;;;;;4.16;90.74;99342.34;1402318;88;21991;-78
2023/03/15 08:47:13;;;;;;;3.97;1.93;;;;;;;4.26;92.55;99358.94;1401971;88;22112;-79
2023/03/15 08:49:40;;;;;;;2.93;1.77;;;;;;;4.03;91.76;99363.05;1558581;88;22031;-80
2023/03/15 08:52:07;;;;;;;2.07;1.23;;;;;;;4.01;92.86;99357.59;1402157;88;22107;-81
2023/03/15 08:54:33;;;;;;;4.47;1.60;;;;;;;4.01;92.86;99357.59;1406552;88;22178;-80
2023/03/15 08:56:59;;;;;;;1.83;1.20;;;;;;;4.22;93.24;99364.08;1397496;88;22018;-80
2023/03/15 08:59:25;;;;;;;2.37;1.70;;;;;;;4.18;93.08;99362.70;1402929;88;22273;-80
2023/03/15 09:01:52;;;;;;;32.53;14.97;;;;;;;4.18;93.08;99362.70;1407910;88;22024;-80
2023/03/15 09:04:18;;;;;;;2.33;1.83;;;;;;;4.23;91.91;99396.70;1563370;88;22670;-81
2023/03/15 09:06:45;;;;;;;2.07;1.53;;;;;;;4.29;90.59;99398.78;1401859;88;22010;-81
2023/03/15 09:09:16;;;;;;;3.93;2.40;;;;;;;4.29;90.59;99398.78;1407906;88;22820;-80
2023/03/15 09:11:39;;;;;;;7.70;4.10;;;;;;;4.16;89.65;99402.09;1399677;89;21872;-81
2023/03/15 09:14:05;;;;;;;5.73;2.60;;;;;;;4.10;90.33;99378.23;1402051;88;21958;-80
2023/03/15 09:16:32;;;;;;;2.97;1.70;;;;;;;4.10;90.33;99378.23;1417009;88;22990;-79
2023/03/15 09:18:58;;;;;;;2.83;1.57;;;;;;;4.00;91.92;99393.42;1568042;88;21715;-78
2023/03/15 09:21:26;;;;;;;1.90;1.30;;;;;;;3.85;91.29;99406.48;1405875;88;22851;-80
2023/03/15 09:23:53;;;;;;;4.27;2.97;;;;;;;3.80;92.05;99419.16;1410224;88;22600;-79
2023/03/15 09:26:19;;;;;;;2.17;1.73;;;;;;;3.91;92.64;99427.39;1405330;88;21884;-79
2023/03/15 09:28:45;;;;;;;1.63;1.53;;;;;;;3.77;92.32;99422.00;1411514;88;21924;-79
2023/03/15 09:31:12;;;;;;;4.10;2.23;;;;;;;3.63;92.85;99419.26;1405385;88;22899;-81
2023/03/15 09:33:38;;;;;;;2.37;1.80;;;;;;;3.71;94.64;99430.37;1411352;88;21875;-82
2023/03/15 09:36:05;;;;;;;3.50;2.40;;;;;;;3.83;95.25;99425.44;1567799;88;21863;-82
2023/03/15 09:38:31;;;;;;;2.50;1.70;;;;;;;3.84;93.43;99425.78;1414720;88;21986;-78
2023/03/15 09:41:18;;;;;;;3.00;1.90;;;;;;;3.66;94.22;99426.03;1458923;88;22300;-82
2023/03/15 09:48:17;;;;;;;2.60;1.77;;;;;;;3.57;94.14;99446.77;1478913;88;22928;-82
2023/03/15 09:50:54;;;;;;;2.90;1.80;;;;;;;3.55;94.53;99454.38;1466786;88;22747;-83
2023/03/15 09:53:44;;;;;;;2.87;2.10;;;;;;;3.49;95.64;99445.25;1401325;89;22688;-81
2023/03/15 09:56:28;;;;;;;3.10;1.83;;;;;;;3.49;94.88;99454.41;1402242;88;21729;-82
2023/03/15 09:59:01;;;;;;;2.47;1.87;;;;;;;3.47;95.77;99460.72;1561293;88;22700;-82
2023/03/15 10:01:39;;;;;;;4.00;2.00;;;;;;;3.63;97.01;99461.61;1386706;89;21683;-81
2023/03/15 10:04:23;;;;;;;6.80;2.50;;;;;;;3.58;97.62;99456.74;1402568;88;21779;-82
2023/03/15 10:11:11;;;;;;;2.17;1.63;;;;;;;3.60;97.28;99473.16;1461354;88;21995;-84
2023/03/15 10:14:18;;;;;;;3.03;1.97;;;;;;;3.65;97.65;99456.57;1472448;88;22647;-82
2023/03/15 10:17:40;;;;;;;3.03;2.33;;;;;;;3.56;97.27;99459.47;1486394;90;21772;-82
2023/03/15 10:20:27;;;;;;;3.83;2.60;;;;;;;3.52;96.50;99460.69;1378424;90;21721;-82
2023/03/15 10:23:37;;;;;;;5.43;2.90;;;;;;;3.52;96.50;99460.69;1555245;87;22655;-81
2023/03/15 10:30:23;;;;;;;4.30;2.40;;;;;;;3.36;97.20;99457.66;1402783;102;22534;-82
2023/03/15 10:33:06;;;;;;;2.55;2.12;;;;;;;3.33;96.21;99463.14;1435301;87;22655;-82
2023/03/15 10:35:32;;;;;;;3.50;2.67;;;;;;;3.30;98.48;99471.23;1406429;89;21561;-79
2023/03/15 10:37:58;;;;;;;3.00;2.43;;;;;;;3.23;97.91;99472.70;1413060;87;21580;-82
2023/03/15 10:40:46;;;;;;;4.97;2.60;;;;;;;3.18;96.65;99474.86;1407380;87;21548;-80
2023/03/15 10:43:23;;;;;;;4.63;2.23;;;;;;;3.23;97.31;99483.16;1405098;87;21593;-82
2023/03/15 10:46:22;;;;;;;4.40;2.60;;;;;;;3.24;96.36;99475.66;1564029;87;22366;-80
2023/03/15 10:49:19;;;;;;;4.13;2.00;;;;;;;3.23;96.21;99474.02;1570081;87;21488;-82
2023/03/15 10:51:47;;;;;;;5.83;2.50;;;;;;;3.14;95.00;99467.27;1479566;87;21923;-81
2023/03/15 10:54:21;;;;;;;4.93;3.07;;;;;;;3.13;95.62;99481.27;1482905;87;22577;-77
2023/03/15 10:57:06;;;;;;;5.60;3.33;;;;;;;3.06;94.11;99463.60;1485265;87;21890;-81
2023/03/15 10:59:34;;;;;;;6.03;2.80;;;;;;;3.10;96.25;99476.29;1486371;87;21689;-83
2023/03/15 11:02:15;;;;;;;5.93;3.60;;;;;;;3.09;96.78;99482.48;1483830;87;21748;-80
2023/03/15 11:04:52;;;;;;;12.25;5.78;;;;;;;3.23;97.26;99484.48;1482470;87;21770;-83
2023/03/15 11:07:18;;;;;;;4.13;3.13;;;;;;;3.23;97.80;99472.22;1455114;87;22119;-80
2023/03/15 11:09:54;;;;;;;3.97;2.70;;;;;;;3.28;96.94;99480.98;1478987;87;21629;-78
2023/03/15 11:12:25;;;;;;;6.77;3.53;;;;;;;3.13;95.19;99468.19;1482274;87;23292;-81
2023/03/15 11:15:03;;;;;;;5.90;3.47;;;;;;;3.13;96.09;99472.59;1468869;87;21839;-82
2023/03/15 11:17:36;;;;;;;6.40;3.70;;;;;;;3.12;96.04;99476.18;1483828;87;21627;-83
2023/03/15 11:20:29;;;;;;;4.97;3.60;;;;;;;3.18;97.02;99482.70;1481631;88;22782;-82
2023/03/15 11:22:58;;;;;;;5.97;3.10;;;;;;;3.20;97.87;99478.19;1482850;88;21977;-82
2023/03/15 11:25:32;;;;;;;7.23;3.20;;;;;;;3.12;98.83;99473.56;1484888;88;21881;-80
2023/03/15 11:28:00;;;;;;;4.67;3.30;;;;;;;3.14;98.51;99477.72;1490054;88;22725;-81
2023/03/15 11:30:30;;;;;;;7.73;4.70;;;;;;;3.05;99.36;99481.08;1481849;88;21720;-83
2023/03/15 11:33:03;;;;;;;6.90;3.50;;;;;;;2.99;98.80;99497.70;1480089;88;21948;-80
2023/03/15 11:35:34;;;;;;;7.40;4.40;;;;;;;2.89;98.91;99515.43;1475384;88;21734;-81
2023/03/15 11:38:12;;;;;;;7.90;4.40;;;;;;;2.85;98.93;99515.78;1484627;88;21734;-82
2023/03/15 11:40:44;;;;;;;8.20;4.87;;;;;;;2.75;98.26;99518.77;1490795;88;21502;-82
2023/03/15 11:43:18;;;;;;;9.53;5.87;;;;;;;2.83;99.73;99517.70;1476752;88;21808;-81
2023/03/15 11:45:49;;;;;;;7.70;4.30;;;;;;;2.60;99.68;99507.26;1472778;88;21603;-83
2023/03/15 11:48:27;;;;;;;7.42;5.40;;;;;;;2.61;100.00;99504.99;1478538;88;21589;-80
2023/03/15 11:50:55;;;;;;;11.27;4.40;;;;;;;2.52;100.00;99533.14;1482814;88;21510;-83
2023/03/15 11:53:25;;;;;;;7.30;4.57;;;;;;;2.58;100.00;99537.89;1483872;88;21768;-83
2023/03/15 11:55:54;;;;;;;8.00;5.53;;;;;;;2.58;100.00;99524.83;1479567;88;22582;-83
2023/03/15 11:58:33;;;;;;;7.00;4.13;;;;;;;2.45;100.00;99520.20;1482221;88;21652;-81